sensor_id;sensor_type;location;lat;lon;timestamp;P1;durP1;ratioP1;P2;durP2;ratioP2
61344;SDS011;47216;42.656;23.232;2024-03-08T00:02:24;3.30;;;2.03;;
61344;SDS011;47216;42.656;23.232;2024-03-08T00:04:51;4.33;;;2.33;;
61344;SDS011;47216;42.656;23.232;2024-03-08T00:07:17;3.33;;;2.20;;
61344;SDS011;47216;42.656;23.232;2024-03-08T00:09:44;3.90;;;1.87;;
61344;SDS011;47216;42.656;23.232;2024-03-08T00:12:13;3.97;;;3.30;;
61344;SDS011;47216;42.656;23.232;2024-03-08T00:14:40;3.47;;;2.30;;
61344;SDS011;47216;42.656;23.232;2024-03-08T00:17:08;2.87;;;1.83;;
61344;SDS011;47216;42.656;23.232;2024-03-08T00:19:35;2.20;;;1.63;;
61344;SDS011;47216;42.656;23.232;2024-03-08T00:22:02;2.30;;;1.40;;
61344;SDS011;47216;42.656;23.232;2024-03-08T00:24:29;1.83;;;1.57;;
61344;SDS011;47216;42.656;23.232;2024-03-08T00:26:56;1.63;;;1.53;;
61344;SDS011;47216;42.656;23.232;2024-03-08T00:29:23;1.70;;;1.53;;
61344;SDS011;47216;42.656;23.232;2024-03-08T00:31:50;1.93;;;1.60;;
61344;SDS011;47216;42.656;23.232;2024-03-08T00:34:18;1.67;;;1.37;;
61344;SDS011;47216;42.656;23.232;2024-03-08T00:36:45;2.17;;;1.73;;
61344;SDS011;47216;42.656;23.232;2024-03-08T00:39:12;1.80;;;1.43;;
61344;SDS011;47216;42.656;23.232;2024-03-08T00:41:39;2.03;;;1.80;;
61344;SDS011;47216;42.656;23.232;2024-03-08T00:44:06;1.87;;;1.60;;
61344;SDS011;47216;42.656;23.232;2024-03-08T00:46:33;2.50;;;1.70;;
61344;SDS011;47216;42.656;23.232;2024-03-08T00:49:00;2.77;;;1.80;;
61344;SDS011;47216;42.656;23.232;2024-03-08T00:51:28;3.10;;;2.07;;
61344;SDS011;47216;42.656;23.232;2024-03-08T00:53:55;2.60;;;2.00;;
61344;SDS011;47216;42.656;23.232;2024-03-08T00:56:22;2.00;;;1.50;;
61344;SDS011;47216;42.656;23.232;2024-03-08T00:58:49;2.70;;;1.70;;
61344;SDS011;47216;42.656;23.232;2024-03-08T01:01:18;2.30;;;1.90;;
61344;SDS011;47216;42.656;23.232;2024-03-08T01:03:44;3.30;;;1.73;;
61344;SDS011;47216;42.656;23.232;2024-03-08T01:06:11;2.10;;;1.67;;
61344;SDS011;47216;42.656;23.232;2024-03-08T01:08:40;2.17;;;1.63;;
61344;SDS011;47216;42.656;23.232;2024-03-08T01:11:07;2.13;;;1.67;;
61344;SDS011;47216;42.656;23.232;2024-03-08T01:13:34;1.80;;;1.60;;
61344;SDS011;47216;42.656;23.232;2024-03-08T01:16:01;2.10;;;1.50;;
61344;SDS011;47216;42.656;23.232;2024-03-08T01:18:28;2.67;;;1.73;;
61344;SDS011;47216;42.656;23.232;2024-03-08T01:20:55;1.60;;;1.50;;
61344;SDS011;47216;42.656;23.232;2024-03-08T01:23:22;1.90;;;1.60;;
61344;SDS011;47216;42.656;23.232;2024-03-08T01:25:50;2.07;;;1.53;;
61344;SDS011;47216;42.656;23.232;2024-03-08T01:28:22;2.00;;;1.40;;
61344;SDS011;47216;42.656;23.232;2024-03-08T01:30:49;2.03;;;1.57;;
61344;SDS011;47216;42.656;23.232;2024-03-08T01:33:20;1.90;;;1.50;;
61344;SDS011;47216;42.656;23.232;2024-03-08T01:35:47;3.23;;;1.60;;
61344;SDS011;47216;42.656;23.232;2024-03-08T01:38:14;1.50;;;1.33;;
61344;SDS011;47216;42.656;23.232;2024-03-08T01:40:42;1.63;;;1.33;;
61344;SDS011;47216;42.656;23.232;2024-03-08T01:43:18;1.43;;;1.33;;
61344;SDS011;47216;42.656;23.232;2024-03-08T01:45:45;1.77;;;1.50;;
61344;SDS011;47216;42.656;23.232;2024-03-08T01:48:12;1.77;;;1.60;;
61344;SDS011;47216;42.656;23.232;2024-03-08T01:50:40;1.80;;;1.40;;
61344;SDS011;47216;42.656;23.232;2024-03-08T01:53:08;1.30;;;1.20;;
61344;SDS011;47216;42.656;23.232;2024-03-08T01:55:37;1.97;;;1.17;;
61344;SDS011;47216;42.656;23.232;2024-03-08T01:58:04;1.70;;;1.40;;
61344;SDS011;47216;42.656;23.232;2024-03-08T02:00:33;1.53;;;1.30;;
61344;SDS011;47216;42.656;23.232;2024-03-08T02:03:03;1.77;;;1.40;;
61344;SDS011;47216;42.656;23.232;2024-03-08T02:05:30;1.83;;;1.47;;
61344;SDS011;47216;42.656;23.232;2024-03-08T02:07:58;1.50;;;1.40;;
61344;SDS011;47216;42.656;23.232;2024-03-08T02:10:25;1.90;;;1.50;;
61344;SDS011;47216;42.656;23.232;2024-03-08T02:12:51;1.50;;;1.40;;
61344;SDS011;47216;42.656;23.232;2024-03-08T02:15:18;2.03;;;1.47;;
61344;SDS011;47216;42.656;23.232;2024-03-08T02:17:48;1.37;;;1.27;;
61344;SDS011;47216;42.656;23.232;2024-03-08T02:20:14;2.10;;;1.50;;
61344;SDS011;47216;42.656;23.232;2024-03-08T02:22:43;1.77;;;1.30;;
61344;SDS011;47216;42.656;23.232;2024-03-08T02:25:10;2.40;;;1.50;;
61344;SDS011;47216;42.656;23.232;2024-03-08T02:27:37;2.50;;;1.70;;
61344;SDS011;47216;42.656;23.232;2024-03-08T02:30:05;1.70;;;1.60;;
61344;SDS011;47216;42.656;23.232;2024-03-08T02:32:32;3.03;;;1.40;;
61344;SDS011;47216;42.656;23.232;2024-03-08T02:34:59;1.33;;;1.20;;
61344;SDS011;47216;42.656;23.232;2024-03-08T02:37:26;1.57;;;1.07;;
61344;SDS011;47216;42.656;23.232;2024-03-08T02:39:55;1.93;;;1.73;;
61344;SDS011;47216;42.656;23.232;2024-03-08T02:42:23;2.47;;;1.60;;
61344;SDS011;47216;42.656;23.232;2024-03-08T02:44:50;1.93;;;1.70;;
61344;SDS011;47216;42.656;23.232;2024-03-08T02:47:16;1.80;;;1.70;;
61344;SDS011;47216;42.656;23.232;2024-03-08T02:49:43;2.33;;;1.50;;
61344;SDS011;47216;42.656;23.232;2024-03-08T02:52:10;3.63;;;1.67;;
61344;SDS011;47216;42.656;23.232;2024-03-08T02:54:37;1.90;;;1.60;;
61344;SDS011;47216;42.656;23.232;2024-03-08T02:57:05;2.83;;;1.97;;
61344;SDS011;47216;42.656;23.232;2024-03-08T02:59:33;2.30;;;2.00;;
61344;SDS011;47216;42.656;23.232;2024-03-08T03:02:00;2.17;;;1.77;;
61344;SDS011;47216;42.656;23.232;2024-03-08T03:04:27;3.20;;;2.47;;
61344;SDS011;47216;42.656;23.232;2024-03-08T03:06:54;1.90;;;1.70;;
61344;SDS011;47216;42.656;23.232;2024-03-08T03:09:21;2.77;;;2.10;;
61344;SDS011;47216;42.656;23.232;2024-03-08T03:11:52;7.10;;;2.43;;
61344;SDS011;47216;42.656;23.232;2024-03-08T03:14:21;1.90;;;1.70;;
61344;SDS011;47216;42.656;23.232;2024-03-08T03:16:48;1.83;;;1.53;;
61344;SDS011;47216;42.656;23.232;2024-03-08T03:19:15;2.20;;;1.67;;
61344;SDS011;47216;42.656;23.232;2024-03-08T03:21:42;1.73;;;1.30;;
61344;SDS011;47216;42.656;23.232;2024-03-08T03:24:09;1.53;;;1.20;;
61344;SDS011;47216;42.656;23.232;2024-03-08T03:26:36;1.37;;;1.00;;
61344;SDS011;47216;42.656;23.232;2024-03-08T03:29:04;1.10;;;1.00;;
61344;SDS011;47216;42.656;23.232;2024-03-08T03:31:35;1.03;;;0.93;;
61344;SDS011;47216;42.656;23.232;2024-03-08T03:34:02;1.40;;;0.90;;
61344;SDS011;47216;42.656;23.232;2024-03-08T03:36:29;1.70;;;1.10;;
61344;SDS011;47216;42.656;23.232;2024-03-08T03:38:56;0.90;;;0.90;;
61344;SDS011;47216;42.656;23.232;2024-03-08T03:41:32;1.23;;;0.93;;
61344;SDS011;47216;42.656;23.232;2024-03-08T03:43:59;2.03;;;0.80;;
61344;SDS011;47216;42.656;23.232;2024-03-08T03:46:26;1.00;;;0.90;;
61344;SDS011;47216;42.656;23.232;2024-03-08T03:48:54;1.53;;;1.10;;
61344;SDS011;47216;42.656;23.232;2024-03-08T03:51:21;0.83;;;0.83;;
61344;SDS011;47216;42.656;23.232;2024-03-08T03:53:48;1.57;;;0.90;;
61344;SDS011;47216;42.656;23.232;2024-03-08T03:56:15;1.00;;;0.90;;
61344;SDS011;47216;42.656;23.232;2024-03-08T03:58:42;3.03;;;1.10;;
61344;SDS011;47216;42.656;23.232;2024-03-08T04:01:08;1.13;;;1.03;;
61344;SDS011;47216;42.656;23.232;2024-03-08T04:03:35;1.40;;;1.30;;
61344;SDS011;47216;42.656;23.232;2024-03-08T04:06:04;2.60;;;1.00;;
61344;SDS011;47216;42.656;23.232;2024-03-08T04:08:31;2.30;;;1.20;;
61344;SDS011;47216;42.656;23.232;2024-03-08T04:10:59;1.83;;;1.50;;
61344;SDS011;47216;42.656;23.232;2024-03-08T04:13:26;1.70;;;1.30;;
61344;SDS011;47216;42.656;23.232;2024-03-08T04:15:54;1.40;;;1.20;;
61344;SDS011;47216;42.656;23.232;2024-03-08T04:18:21;1.70;;;1.33;;
61344;SDS011;47216;42.656;23.232;2024-03-08T04:20:48;1.50;;;1.10;;
61344;SDS011;47216;42.656;23.232;2024-03-08T04:23:16;3.10;;;1.30;;
61344;SDS011;47216;42.656;23.232;2024-03-08T04:25:44;1.00;;;0.90;;
61344;SDS011;47216;42.656;23.232;2024-03-08T04:28:11;2.30;;;1.50;;
61344;SDS011;47216;42.656;23.232;2024-03-08T04:30:38;1.67;;;1.07;;
61344;SDS011;47216;42.656;23.232;2024-03-08T04:33:05;1.50;;;1.00;;
61344;SDS011;47216;42.656;23.232;2024-03-08T04:35:33;1.30;;;1.00;;
61344;SDS011;47216;42.656;23.232;2024-03-08T04:38:02;1.03;;;0.93;;
61344;SDS011;47216;42.656;23.232;2024-03-08T04:40:32;1.13;;;0.83;;
61344;SDS011;47216;42.656;23.232;2024-03-08T04:42:59;2.47;;;1.10;;
61344;SDS011;47216;42.656;23.232;2024-03-08T04:45:26;1.23;;;0.90;;
61344;SDS011;47216;42.656;23.232;2024-03-08T04:47:52;1.20;;;1.07;;
61344;SDS011;47216;42.656;23.232;2024-03-08T04:50:19;1.00;;;0.73;;
61344;SDS011;47216;42.656;23.232;2024-03-08T04:52:46;2.30;;;1.87;;
61344;SDS011;47216;42.656;23.232;2024-03-08T04:55:13;3.67;;;2.53;;
61344;SDS011;47216;42.656;23.232;2024-03-08T04:57:41;1.13;;;1.00;;
61344;SDS011;47216;42.656;23.232;2024-03-08T05:00:11;1.77;;;1.67;;
61344;SDS011;47216;42.656;23.232;2024-03-08T05:02:40;1.23;;;1.10;;
61344;SDS011;47216;42.656;23.232;2024-03-08T05:05:07;0.80;;;0.80;;
61344;SDS011;47216;42.656;23.232;2024-03-08T05:07:36;1.20;;;1.10;;
61344;SDS011;47216;42.656;23.232;2024-03-08T05:10:04;1.33;;;1.10;;
61344;SDS011;47216;42.656;23.232;2024-03-08T05:12:32;1.93;;;1.70;;
61344;SDS011;47216;42.656;23.232;2024-03-08T05:15:00;1.30;;;1.13;;
61344;SDS011;47216;42.656;23.232;2024-03-08T05:17:27;1.77;;;1.23;;
61344;SDS011;47216;42.656;23.232;2024-03-08T05:19:55;3.27;;;3.03;;
61344;SDS011;47216;42.656;23.232;2024-03-08T05:22:22;1.63;;;1.43;;
61344;SDS011;47216;42.656;23.232;2024-03-08T05:24:49;1.93;;;1.40;;
61344;SDS011;47216;42.656;23.232;2024-03-08T05:27:15;2.07;;;1.60;;
61344;SDS011;47216;42.656;23.232;2024-03-08T05:29:42;1.60;;;1.50;;
61344;SDS011;47216;42.656;23.232;2024-03-08T05:32:10;1.73;;;1.47;;
61344;SDS011;47216;42.656;23.232;2024-03-08T05:34:37;2.43;;;1.57;;
61344;SDS011;47216;42.656;23.232;2024-03-08T05:37:04;1.80;;;1.57;;
61344;SDS011;47216;42.656;23.232;2024-03-08T05:39:32;4.10;;;1.67;;
61344;SDS011;47216;42.656;23.232;2024-03-08T05:41:59;4.77;;;2.57;;
61344;SDS011;47216;42.656;23.232;2024-03-08T05:44:25;5.03;;;3.23;;
61344;SDS011;47216;42.656;23.232;2024-03-08T05:46:53;4.63;;;3.20;;
61344;SDS011;47216;42.656;23.232;2024-03-08T05:49:22;5.77;;;2.50;;
61344;SDS011;47216;42.656;23.232;2024-03-08T05:51:50;4.17;;;3.77;;
61344;SDS011;47216;42.656;23.232;2024-03-08T05:54:17;2.97;;;2.47;;
61344;SDS011;47216;42.656;23.232;2024-03-08T05:56:43;5.63;;;3.00;;
61344;SDS011;47216;42.656;23.232;2024-03-08T05:59:11;4.73;;;3.13;;
61344;SDS011;47216;42.656;23.232;2024-03-08T06:01:38;4.83;;;3.90;;
61344;SDS011;47216;42.656;23.232;2024-03-08T06:04:06;7.03;;;3.53;;
61344;SDS011;47216;42.656;23.232;2024-03-08T06:06:34;5.90;;;3.80;;
61344;SDS011;47216;42.656;23.232;2024-03-08T06:09:02;5.37;;;3.20;;
61344;SDS011;47216;42.656;23.232;2024-03-08T06:11:34;5.97;;;4.33;;
61344;SDS011;47216;42.656;23.232;2024-03-08T06:14:02;5.07;;;3.60;;
61344;SDS011;47216;42.656;23.232;2024-03-08T06:16:29;4.47;;;3.27;;
61344;SDS011;47216;42.656;23.232;2024-03-08T06:18:56;4.70;;;3.37;;
61344;SDS011;47216;42.656;23.232;2024-03-08T06:21:23;4.20;;;2.77;;
61344;SDS011;47216;42.656;23.232;2024-03-08T06:23:52;5.20;;;3.30;;
61344;SDS011;47216;42.656;23.232;2024-03-08T06:26:20;8.50;;;5.20;;
61344;SDS011;47216;42.656;23.232;2024-03-08T06:28:47;12.70;;;6.20;;
61344;SDS011;47216;42.656;23.232;2024-03-08T06:31:15;10.30;;;6.17;;
61344;SDS011;47216;42.656;23.232;2024-03-08T06:33:42;11.33;;;5.73;;
61344;SDS011;47216;42.656;23.232;2024-03-08T06:36:10;6.10;;;3.93;;
61344;SDS011;47216;42.656;23.232;2024-03-08T06:38:37;4.77;;;3.23;;
61344;SDS011;47216;42.656;23.232;2024-03-08T06:41:09;6.33;;;3.80;;
61344;SDS011;47216;42.656;23.232;2024-03-08T06:43:40;6.23;;;3.43;;
61344;SDS011;47216;42.656;23.232;2024-03-08T06:46:07;4.73;;;3.23;;
61344;SDS011;47216;42.656;23.232;2024-03-08T06:48:34;5.03;;;3.13;;
61344;SDS011;47216;42.656;23.232;2024-03-08T06:51:02;6.20;;;4.07;;
61344;SDS011;47216;42.656;23.232;2024-03-08T06:53:30;6.23;;;4.30;;
61344;SDS011;47216;42.656;23.232;2024-03-08T06:55:57;5.70;;;4.07;;
61344;SDS011;47216;42.656;23.232;2024-03-08T06:58:25;5.37;;;3.37;;
61344;SDS011;47216;42.656;23.232;2024-03-08T07:00:54;5.87;;;3.77;;
61344;SDS011;47216;42.656;23.232;2024-03-08T07:03:23;4.63;;;3.57;;
61344;SDS011;47216;42.656;23.232;2024-03-08T07:05:51;5.30;;;3.43;;
61344;SDS011;47216;42.656;23.232;2024-03-08T07:08:19;4.80;;;3.20;;
61344;SDS011;47216;42.656;23.232;2024-03-08T07:10:47;6.23;;;3.73;;
61344;SDS011;47216;42.656;23.232;2024-03-08T07:13:14;5.33;;;3.70;;
61344;SDS011;47216;42.656;23.232;2024-03-08T07:15:43;5.97;;;3.30;;
61344;SDS011;47216;42.656;23.232;2024-03-08T07:18:11;6.07;;;4.27;;
61344;SDS011;47216;42.656;23.232;2024-03-08T07:20:39;5.67;;;3.63;;
61344;SDS011;47216;42.656;23.232;2024-03-08T07:23:07;4.53;;;3.30;;
61344;SDS011;47216;42.656;23.232;2024-03-08T07:25:35;5.83;;;4.10;;
61344;SDS011;47216;42.656;23.232;2024-03-08T07:28:04;6.53;;;3.67;;
61344;SDS011;47216;42.656;23.232;2024-03-08T07:30:32;5.30;;;3.40;;
61344;SDS011;47216;42.656;23.232;2024-03-08T07:33:17;5.00;;;3.33;;
61344;SDS011;47216;42.656;23.232;2024-03-08T07:35:43;5.77;;;4.07;;
61344;SDS011;47216;42.656;23.232;2024-03-08T07:38:12;10.10;;;5.77;;
61344;SDS011;47216;42.656;23.232;2024-03-08T07:40:39;9.23;;;5.90;;
61344;SDS011;47216;42.656;23.232;2024-03-08T07:43:09;10.83;;;6.23;;
61344;SDS011;47216;42.656;23.232;2024-03-08T07:45:36;8.97;;;6.07;;
61344;SDS011;47216;42.656;23.232;2024-03-08T07:48:03;11.03;;;6.17;;
61344;SDS011;47216;42.656;23.232;2024-03-08T07:50:36;8.93;;;5.97;;
61344;SDS011;47216;42.656;23.232;2024-03-08T07:53:03;7.87;;;5.13;;
61344;SDS011;47216;42.656;23.232;2024-03-08T07:55:31;9.37;;;4.83;;
61344;SDS011;47216;42.656;23.232;2024-03-08T07:57:59;8.63;;;5.93;;
61344;SDS011;47216;42.656;23.232;2024-03-08T08:00:26;8.43;;;5.20;;
61344;SDS011;47216;42.656;23.232;2024-03-08T08:02:53;6.37;;;3.70;;
61344;SDS011;47216;42.656;23.232;2024-03-08T08:05:20;5.33;;;3.23;;
61344;SDS011;47216;42.656;23.232;2024-03-08T08:07:48;6.93;;;3.30;;
61344;SDS011;47216;42.656;23.232;2024-03-08T08:10:17;8.53;;;4.10;;
61344;SDS011;47216;42.656;23.232;2024-03-08T08:12:46;6.07;;;4.07;;
61344;SDS011;47216;42.656;23.232;2024-03-08T08:15:14;7.53;;;4.40;;
61344;SDS011;47216;42.656;23.232;2024-03-08T08:17:41;6.00;;;4.47;;
61344;SDS011;47216;42.656;23.232;2024-03-08T08:20:09;9.07;;;4.57;;
61344;SDS011;47216;42.656;23.232;2024-03-08T08:22:37;6.30;;;4.17;;
61344;SDS011;47216;42.656;23.232;2024-03-08T08:25:06;6.87;;;4.10;;
61344;SDS011;47216;42.656;23.232;2024-03-08T08:27:34;8.27;;;4.27;;
61344;SDS011;47216;42.656;23.232;2024-03-08T08:30:01;5.33;;;4.23;;
61344;SDS011;47216;42.656;23.232;2024-03-08T08:32:33;8.40;;;5.10;;
61344;SDS011;47216;42.656;23.232;2024-03-08T08:35:00;6.03;;;5.03;;
61344;SDS011;47216;42.656;23.232;2024-03-08T08:37:27;6.87;;;4.40;;
61344;SDS011;47216;42.656;23.232;2024-03-08T08:39:55;6.07;;;4.73;;
61344;SDS011;47216;42.656;23.232;2024-03-08T08:42:23;5.60;;;4.07;;
61344;SDS011;47216;42.656;23.232;2024-03-08T08:44:50;8.63;;;3.70;;
61344;SDS011;47216;42.656;23.232;2024-03-08T08:47:17;5.63;;;3.90;;
61344;SDS011;47216;42.656;23.232;2024-03-08T08:49:44;3.70;;;3.20;;
61344;SDS011;47216;42.656;23.232;2024-03-08T08:52:12;6.80;;;3.80;;
61344;SDS011;47216;42.656;23.232;2024-03-08T08:54:40;5.77;;;3.80;;
61344;SDS011;47216;42.656;23.232;2024-03-08T08:57:07;8.47;;;4.97;;
61344;SDS011;47216;42.656;23.232;2024-03-08T08:59:36;8.37;;;4.87;;
61344;SDS011;47216;42.656;23.232;2024-03-08T09:02:04;9.13;;;3.57;;
61344;SDS011;47216;42.656;23.232;2024-03-08T09:04:31;5.80;;;3.70;;
61344;SDS011;47216;42.656;23.232;2024-03-08T09:06:58;6.20;;;3.97;;
61344;SDS011;47216;42.656;23.232;2024-03-08T09:09:26;6.63;;;4.73;;
61344;SDS011;47216;42.656;23.232;2024-03-08T09:11:54;6.63;;;4.30;;
61344;SDS011;47216;42.656;23.232;2024-03-08T09:14:21;8.57;;;5.20;;
61344;SDS011;47216;42.656;23.232;2024-03-08T09:16:49;6.63;;;4.53;;
61344;SDS011;47216;42.656;23.232;2024-03-08T09:19:16;6.27;;;4.30;;
61344;SDS011;47216;42.656;23.232;2024-03-08T09:21:44;7.13;;;4.50;;
61344;SDS011;47216;42.656;23.232;2024-03-08T09:24:12;4.40;;;3.90;;
61344;SDS011;47216;42.656;23.232;2024-03-08T09:26:38;4.83;;;2.80;;
61344;SDS011;47216;42.656;23.232;2024-03-08T09:29:07;6.93;;;3.30;;
61344;SDS011;47216;42.656;23.232;2024-03-08T09:31:35;4.97;;;3.70;;
61344;SDS011;47216;42.656;23.232;2024-03-08T09:34:04;6.77;;;4.00;;
61344;SDS011;47216;42.656;23.232;2024-03-08T09:36:33;5.33;;;3.27;;
61344;SDS011;47216;42.656;23.232;2024-03-08T09:39:00;4.57;;;3.10;;
61344;SDS011;47216;42.656;23.232;2024-03-08T09:41:28;4.03;;;2.90;;
61344;SDS011;47216;42.656;23.232;2024-03-08T09:43:56;7.63;;;4.20;;
61344;SDS011;47216;42.656;23.232;2024-03-08T09:46:24;4.67;;;2.60;;
61344;SDS011;47216;42.656;23.232;2024-03-08T09:48:52;3.47;;;2.40;;
61344;SDS011;47216;42.656;23.232;2024-03-08T09:51:21;3.00;;;1.90;;
61344;SDS011;47216;42.656;23.232;2024-03-08T09:53:51;2.17;;;1.93;;
61344;SDS011;47216;42.656;23.232;2024-03-08T09:56:18;2.70;;;2.20;;
61344;SDS011;47216;42.656;23.232;2024-03-08T09:58:45;5.57;;;2.77;;
61344;SDS011;47216;42.656;23.232;2024-03-08T10:01:39;3.40;;;2.23;;
61344;SDS011;47216;42.656;23.232;2024-03-08T10:04:06;2.60;;;1.90;;
61344;SDS011;47216;42.656;23.232;2024-03-08T10:06:36;2.50;;;2.10;;
61344;SDS011;47216;42.656;23.232;2024-03-08T10:09:03;2.67;;;2.30;;
61344;SDS011;47216;42.656;23.232;2024-03-08T10:11:33;3.40;;;2.50;;
61344;SDS011;47216;42.656;23.232;2024-03-08T10:14:00;4.20;;;2.27;;
61344;SDS011;47216;42.656;23.232;2024-03-08T10:16:27;2.83;;;2.00;;
61344;SDS011;47216;42.656;23.232;2024-03-08T10:18:55;2.70;;;2.33;;
61344;SDS011;47216;42.656;23.232;2024-03-08T10:21:23;3.50;;;2.13;;
61344;SDS011;47216;42.656;23.232;2024-03-08T10:23:51;2.13;;;1.70;;
61344;SDS011;47216;42.656;23.232;2024-03-08T10:26:18;3.27;;;2.00;;
61344;SDS011;47216;42.656;23.232;2024-03-08T10:28:47;5.10;;;2.70;;
61344;SDS011;47216;42.656;23.232;2024-03-08T10:31:15;5.60;;;2.90;;
61344;SDS011;47216;42.656;23.232;2024-03-08T10:33:42;3.53;;;2.53;;
61344;SDS011;47216;42.656;23.232;2024-03-08T10:36:09;3.90;;;2.30;;
61344;SDS011;47216;42.656;23.232;2024-03-08T10:38:38;6.33;;;3.03;;
61344;SDS011;47216;42.656;23.232;2024-03-08T10:41:08;3.53;;;2.63;;
61344;SDS011;47216;42.656;23.232;2024-03-08T10:43:40;3.77;;;2.70;;
61344;SDS011;47216;42.656;23.232;2024-03-08T10:46:20;5.30;;;2.47;;
61344;SDS011;47216;42.656;23.232;2024-03-08T10:48:57;3.53;;;2.60;;
61344;SDS011;47216;42.656;23.232;2024-03-08T10:51:28;5.73;;;3.37;;
61344;SDS011;47216;42.656;23.232;2024-03-08T10:53:57;5.83;;;4.13;;
61344;SDS011;47216;42.656;23.232;2024-03-08T10:56:29;3.97;;;2.70;;
61344;SDS011;47216;42.656;23.232;2024-03-08T10:58:56;3.30;;;2.13;;
61344;SDS011;47216;42.656;23.232;2024-03-08T11:01:23;3.47;;;2.80;;
61344;SDS011;47216;42.656;23.232;2024-03-08T11:03:51;3.27;;;2.43;;
61344;SDS011;47216;42.656;23.232;2024-03-08T11:06:23;3.60;;;2.33;;
61344;SDS011;47216;42.656;23.232;2024-03-08T11:08:57;2.73;;;2.20;;
61344;SDS011;47216;42.656;23.232;2024-03-08T11:11:24;5.63;;;2.80;;
61344;SDS011;47216;42.656;23.232;2024-03-08T11:13:56;3.23;;;2.30;;
61344;SDS011;47216;42.656;23.232;2024-03-08T11:16:36;3.83;;;2.30;;
61344;SDS011;47216;42.656;23.232;2024-03-08T11:19:06;31.60;;;9.37;;
61344;SDS011;47216;42.656;23.232;2024-03-08T11:21:56;3.73;;;2.53;;
61344;SDS011;47216;42.656;23.232;2024-03-08T11:24:24;4.00;;;2.70;;
61344;SDS011;47216;42.656;23.232;2024-03-08T11:26:54;2.03;;;1.50;;
61344;SDS011;47216;42.656;23.232;2024-03-08T11:29:35;4.27;;;2.60;;
61344;SDS011;47216;42.656;23.232;2024-03-08T11:32:05;2.97;;;1.67;;
61344;SDS011;47216;42.656;23.232;2024-03-08T11:34:34;2.40;;;2.00;;
61344;SDS011;47216;42.656;23.232;2024-03-08T11:37:03;1.50;;;1.37;;
61344;SDS011;47216;42.656;23.232;2024-03-08T11:39:30;1.67;;;1.57;;
61344;SDS011;47216;42.656;23.232;2024-03-08T11:41:57;3.07;;;1.67;;
61344;SDS011;47216;42.656;23.232;2024-03-08T11:44:26;1.50;;;1.40;;
61344;SDS011;47216;42.656;23.232;2024-03-08T11:46:55;2.87;;;1.60;;
61344;SDS011;47216;42.656;23.232;2024-03-08T11:49:22;2.40;;;1.47;;
61344;SDS011;47216;42.656;23.232;2024-03-08T11:51:51;2.03;;;1.90;;
61344;SDS011;47216;42.656;23.232;2024-03-08T11:54:19;3.40;;;3.10;;
61344;SDS011;47216;42.656;23.232;2024-03-08T11:56:46;1.70;;;1.47;;
61344;SDS011;47216;42.656;23.232;2024-03-08T11:59:13;1.70;;;1.60;;
61344;SDS011;47216;42.656;23.232;2024-03-08T12:01:40;2.37;;;2.17;;
61344;SDS011;47216;42.656;23.232;2024-03-08T12:04:11;1.70;;;1.60;;
61344;SDS011;47216;42.656;23.232;2024-03-08T12:06:39;2.33;;;1.77;;
61344;SDS011;47216;42.656;23.232;2024-03-08T12:09:09;2.40;;;1.77;;
61344;SDS011;47216;42.656;23.232;2024-03-08T12:11:38;3.87;;;1.60;;
61344;SDS011;47216;42.656;23.232;2024-03-08T12:14:04;2.93;;;1.50;;
61344;SDS011;47216;42.656;23.232;2024-03-08T12:16:32;1.53;;;1.40;;
61344;SDS011;47216;42.656;23.232;2024-03-08T12:18:59;2.27;;;1.60;;
61344;SDS011;47216;42.656;23.232;2024-03-08T12:21:30;1.73;;;1.50;;
61344;SDS011;47216;42.656;23.232;2024-03-08T12:24:03;4.43;;;2.00;;
61344;SDS011;47216;42.656;23.232;2024-03-08T12:26:34;2.03;;;1.43;;
61344;SDS011;47216;42.656;23.232;2024-03-08T12:29:14;5.00;;;1.80;;
61344;SDS011;47216;42.656;23.232;2024-03-08T12:31:42;4.13;;;2.13;;
61344;SDS011;47216;42.656;23.232;2024-03-08T12:34:09;2.03;;;1.63;;
61344;SDS011;47216;42.656;23.232;2024-03-08T12:36:40;2.10;;;1.63;;
61344;SDS011;47216;42.656;23.232;2024-03-08T12:39:12;4.70;;;1.80;;
61344;SDS011;47216;42.656;23.232;2024-03-08T12:41:41;2.80;;;1.50;;
61344;SDS011;47216;42.656;23.232;2024-03-08T12:44:08;7.70;;;1.63;;
61344;SDS011;47216;42.656;23.232;2024-03-08T12:46:36;4.00;;;1.73;;
61344;SDS011;47216;42.656;23.232;2024-03-08T12:49:05;1.93;;;1.40;;
61344;SDS011;47216;42.656;23.232;2024-03-08T12:51:33;1.50;;;1.40;;
61344;SDS011;47216;42.656;23.232;2024-03-08T12:54:02;11.30;;;3.23;;
61344;SDS011;47216;42.656;23.232;2024-03-08T12:56:29;2.67;;;1.63;;
61344;SDS011;47216;42.656;23.232;2024-03-08T12:58:57;4.30;;;1.63;;
61344;SDS011;47216;42.656;23.232;2024-03-08T13:01:25;1.97;;;1.50;;
61344;SDS011;47216;42.656;23.232;2024-03-08T13:03:52;1.73;;;1.53;;
61344;SDS011;47216;42.656;23.232;2024-03-08T13:06:20;1.97;;;1.47;;
61344;SDS011;47216;42.656;23.232;2024-03-08T13:08:49;1.93;;;1.50;;
61344;SDS011;47216;42.656;23.232;2024-03-08T13:11:18;1.80;;;1.50;;
61344;SDS011;47216;42.656;23.232;2024-03-08T13:13:45;2.40;;;1.80;;
61344;SDS011;47216;42.656;23.232;2024-03-08T13:16:12;1.77;;;1.50;;
61344;SDS011;47216;42.656;23.232;2024-03-08T13:18:40;4.47;;;1.80;;
61344;SDS011;47216;42.656;23.232;2024-03-08T13:21:08;4.40;;;2.50;;
61344;SDS011;47216;42.656;23.232;2024-03-08T13:23:36;1.53;;;1.40;;
61344;SDS011;47216;42.656;23.232;2024-03-08T13:26:05;2.73;;;1.90;;
61344;SDS011;47216;42.656;23.232;2024-03-08T13:28:34;2.33;;;1.80;;
61344;SDS011;47216;42.656;23.232;2024-03-08T13:31:03;1.80;;;1.50;;
61344;SDS011;47216;42.656;23.232;2024-03-08T13:33:31;2.00;;;1.77;;
61344;SDS011;47216;42.656;23.232;2024-03-08T13:36:01;1.83;;;1.67;;
61344;SDS011;47216;42.656;23.232;2024-03-08T13:38:31;2.13;;;1.57;;
61344;SDS011;47216;42.656;23.232;2024-03-08T13:40:58;2.17;;;1.60;;
61344;SDS011;47216;42.656;23.232;2024-03-08T13:43:25;3.83;;;1.67;;
61344;SDS011;47216;42.656;23.232;2024-03-08T13:45:55;3.43;;;1.50;;
61344;SDS011;47216;42.656;23.232;2024-03-08T13:48:22;2.60;;;1.67;;
61344;SDS011;47216;42.656;23.232;2024-03-08T13:50:49;3.47;;;1.40;;
61344;SDS011;47216;42.656;23.232;2024-03-08T13:53:16;2.07;;;1.67;;
61344;SDS011;47216;42.656;23.232;2024-03-08T13:55:43;2.17;;;1.67;;
61344;SDS011;47216;42.656;23.232;2024-03-08T13:58:10;5.17;;;1.83;;
61344;SDS011;47216;42.656;23.232;2024-03-08T14:00:39;2.07;;;1.60;;
61344;SDS011;47216;42.656;23.232;2024-03-08T14:03:10;2.40;;;1.90;;
61344;SDS011;47216;42.656;23.232;2024-03-08T14:05:38;2.23;;;1.97;;
61344;SDS011;47216;42.656;23.232;2024-03-08T14:08:06;1.93;;;1.40;;
61344;SDS011;47216;42.656;23.232;2024-03-08T14:10:33;1.63;;;1.47;;
61344;SDS011;47216;42.656;23.232;2024-03-08T14:13:02;3.13;;;1.73;;
61344;SDS011;47216;42.656;23.232;2024-03-08T14:15:30;2.23;;;1.60;;
61344;SDS011;47216;42.656;23.232;2024-03-08T14:17:56;2.63;;;2.00;;
61344;SDS011;47216;42.656;23.232;2024-03-08T14:20:25;1.90;;;1.70;;
61344;SDS011;47216;42.656;23.232;2024-03-08T14:22:52;3.20;;;1.60;;
61344;SDS011;47216;42.656;23.232;2024-03-08T14:25:19;2.57;;;1.80;;
61344;SDS011;47216;42.656;23.232;2024-03-08T14:27:49;3.07;;;1.70;;
61344;SDS011;47216;42.656;23.232;2024-03-08T14:30:18;2.83;;;1.87;;
61344;SDS011;47216;42.656;23.232;2024-03-08T14:32:57;2.47;;;1.57;;
61344;SDS011;47216;42.656;23.232;2024-03-08T14:35:26;2.13;;;1.80;;
61344;SDS011;47216;42.656;23.232;2024-03-08T14:37:54;2.10;;;1.90;;
61344;SDS011;47216;42.656;23.232;2024-03-08T14:40:22;2.07;;;1.53;;